Time;durP1;ratioP1;P1;durP2;ratioP2;P2;SDS_P1;SDS_P2;PMS_P1;PMS_P2;Temp;Humidity;BMP_temperature;BMP_pressure;BME280_temperature;BME280_humidity;BME280_pressure;Samples;Min_cycle;Max_cycle;Signal;HPM_P1;HPM_P2
2021/12/03 00:01:31;;;;;;;18.60;11.40;;;;;;;7.61;72.35;92738.48;1677447;85;21021;-59
2021/12/03 00:03:58;;;;;;;17.10;9.90;;;;;;;7.58;72.51;92728.48;1682210;84;21037;-60
2021/12/03 00:06:24;;;;;;;20.72;12.07;;;;;;;7.53;72.71;92717.59;1676969;85;21160;-60
2021/12/03 00:08:51;;;;;;;10.28;7.17;;;;;;;7.49;72.59;92711.58;1655909;85;21049;-60
2021/12/03 00:11:18;;;;;;;12.98;8.15;;;;;;;7.46;72.89;92711.77;1680518;85;21013;-61
2021/12/03 00:13:46;;;;;;;12.58;8.10;;;;;;;7.46;73.06;92710.41;1673895;85;20966;-60
2021/12/03 00:16:13;;;;;;;15.43;9.83;;;;;;;7.45;73.09;92698.72;1655874;85;21029;-59
2021/12/03 00:18:40;;;;;;;13.98;9.53;;;;;;;7.44;73.16;92710.12;1679209;85;21222;-60
2021/12/03 00:21:08;;;;;;;13.05;9.38;;;;;;;7.38;73.50;92720.24;1652169;85;20966;-60
2021/12/03 00:23:37;;;;;;;11.65;8.25;;;;;;;7.35;73.85;92716.47;1650266;85;20974;-60
2021/12/03 00:26:05;;;;;;;15.32;11.85;;;;;;;7.33;74.01;92702.52;1676978;84;21104;-60
2021/12/03 00:28:32;;;;;;;29.98;17.20;;;;;;;7.27;74.02;92718.10;1673748;85;21093;-61
2021/12/03 00:31:00;;;;;;;26.82;15.83;;;;;;;7.25;74.47;92712.36;1680010;84;21438;-60
2021/12/03 00:33:27;;;;;;;27.20;16.25;;;;;;;7.27;74.85;92720.07;1672862;85;20958;-60
2021/12/03 00:35:54;;;;;;;32.75;20.43;;;;;;;7.26;74.83;92713.09;1677263;85;21502;-62
2021/12/03 00:38:21;;;;;;;25.48;16.30;;;;;;;7.22;74.89;92707.84;1674969;85;21132;-62
2021/12/03 00:40:47;;;;;;;15.75;10.10;;;;;;;7.20;74.99;92691.16;1671300;85;20958;-61
2021/12/03 00:43:14;;;;;;;16.48;9.83;;;;;;;7.21;74.89;92680.36;1670984;84;21156;-62
2021/12/03 00:45:43;;;;;;;14.95;10.03;;;;;;;7.19;75.06;92671.86;1650876;85;21065;-59
2021/12/03 00:48:10;;;;;;;15.10;9.35;;;;;;;7.17;75.22;92665.38;1678658;84;20979;-60
2021/12/03 00:50:37;;;;;;;16.27;10.90;;;;;;;7.15;75.36;92657.64;1678078;84;21465;-60
2021/12/03 00:53:04;;;;;;;20.77;14.25;;;;;;;7.19;75.29;92663.66;1679300;85;21064;-59
2021/12/03 00:55:32;;;;;;;36.70;17.55;;;;;;;7.22;74.87;92655.89;1669620;84;21168;-59
2021/12/03 00:57:58;;;;;;;61.83;22.90;;;;;;;7.19;74.66;92652.72;1671342;85;20982;-60
2021/12/03 01:00:28;;;;;;;14.55;9.65;;;;;;;7.17;74.35;92657.91;1670068;85;21007;-61
2021/12/03 01:02:57;;;;;;;12.90;8.68;;;;;;;7.13;74.24;92661.47;1676298;85;21017;-60
2021/12/03 01:05:24;;;;;;;13.48;10.40;;;;;;;7.11;74.47;92665.30;1681535;84;21029;-60
2021/12/03 01:07:51;;;;;;;18.07;13.30;;;;;;;7.09;74.73;92656.81;1676895;84;21851;-61
2021/12/03 01:10:17;;;;;;;12.85;9.70;;;;;;;7.08;74.85;92659.27;1677778;85;21074;-59
2021/12/03 01:12:44;;;;;;;14.65;10.43;;;;;;;7.05;75.00;92660.23;1666894;85;21034;-60
2021/12/03 01:15:15;;;;;;;14.38;9.60;;;;;;;7.02;74.95;92655.69;1681141;84;21454;-61
2021/12/03 01:17:42;;;;;;;12.03;8.75;;;;;;;6.97;75.09;92641.33;1675367;85;21072;-60
2021/12/03 01:20:11;;;;;;;11.75;7.85;;;;;;;6.88;75.23;92630.53;1670600;84;21070;-60
2021/12/03 01:22:38;;;;;;;10.03;8.80;;;;;;;6.83;75.42;92632.55;1677781;85;21013;-60
2021/12/03 01:25:07;;;;;;;30.25;12.68;;;;;;;6.87;75.36;92634.48;1674099;85;21050;-59
2021/12/03 01:27:35;;;;;;;19.40;11.50;;;;;;;6.91;75.15;92637.77;1674724;85;21613;-62
2021/12/03 01:30:03;;;;;;;10.95;7.22;;;;;;;6.96;74.83;92624.80;1673340;85;21057;-59
2021/12/03 01:32:32;;;;;;;5.28;4.58;;;;;;;6.97;74.45;92641.33;1676337;84;21552;-62
2021/12/03 01:34:58;;;;;;;8.55;6.05;;;;;;;7.08;72.58;92636.04;1681078;84;21093;-60
2021/12/03 01:37:25;;;;;;;6.05;4.35;;;;;;;7.34;72.28;92632.92;1652620;85;21018;-60
2021/12/03 01:39:52;;;;;;;5.75;4.60;;;;;;;7.52;71.44;92631.29;1679868;85;21066;-59
2021/12/03 01:42:18;;;;;;;5.75;4.60;;;;;;;7.67;70.40;92638.82;1652604;85;20970;-61
2021/12/03 01:44:45;;;;;;;5.95;4.87;;;;;;;7.85;69.68;92635.80;1669423;86;21506;-61
2021/12/03 01:47:12;;;;;;;10.70;7.05;;;;;;;7.96;69.17;92624.98;1675592;84;21473;-61
2021/12/03 01:49:39;;;;;;;29.67;19.32;;;;;;;8.03;69.12;92620.45;1671423;84;20991;-61
2021/12/03 01:52:08;;;;;;;25.77;16.62;;;;;;;8.02;69.33;92614.84;1672153;84;21023;-59
2021/12/03 01:54:34;;;;;;;5.28;4.67;;;;;;;7.93;69.49;92621.08;1672241;84;21160;-60
2021/12/03 01:57:01;;;;;;;4.83;4.33;;;;;;;7.89;67.57;92591.17;1678655;85;21248;-60
2021/12/03 01:59:28;;;;;;;12.18;7.60;;;;;;;8.08;67.17;92571.83;1674565;85;20991;-59
2021/12/03 02:01:54;;;;;;;8.70;5.97;;;;;;;8.23;67.01;92588.20;1676373;85;21123;-60
2021/12/03 02:04:21;;;;;;;3.08;2.87;;;;;;;8.27;66.67;92593.58;1678026;85;21109;-60
2021/12/03 02:06:47;;;;;;;3.10;2.80;;;;;;;8.38;65.57;92570.41;1654988;85;21009;-61
2021/12/03 02:09:14;;;;;;;4.50;3.70;;;;;;;8.56;64.96;92589.23;1675676;85;21182;-60
2021/12/03 02:11:41;;;;;;;3.45;3.15;;;;;;;8.74;63.90;92605.33;1670126;85;21061;-60
2021/12/03 02:14:08;;;;;;;3.25;3.05;;;;;;;8.89;63.33;92609.41;1655208;85;20974;-60
2021/12/03 02:16:34;;;;;;;7.92;5.33;;;;;;;9.03;63.06;92607.79;1677387;84;21033;-59
2021/12/03 02:19:02;;;;;;;8.03;5.75;;;;;;;9.11;62.69;92610.94;1680986;85;21064;-61
2021/12/03 02:21:28;;;;;;;4.45;4.03;;;;;;;9.15;63.37;92602.48;1678417;85;21189;-63
2021/12/03 02:23:56;;;;;;;4.33;3.92;;;;;;;9.12;62.88;92608.95;1660327;85;21029;-60
2021/12/03 02:26:23;;;;;;;17.23;11.53;;;;;;;9.14;62.38;92629.78;1669179;86;20994;-62
2021/12/03 02:28:50;;;;;;;14.50;10.55;;;;;;;9.11;64.75;92643.11;1675044;84;21466;-59
2021/12/03 02:31:19;;;;;;;15.08;10.23;;;;;;;8.88;65.51;92645.56;1675053;84;21018;-60
2021/12/03 02:33:46;;;;;;;15.43;11.15;;;;;;;8.67;66.33;92649.62;1652777;85;21458;-60
2021/12/03 02:36:14;;;;;;;16.57;12.28;;;;;;;8.55;66.97;92648.02;1669659;84;20942;-61
2021/12/03 02:38:41;;;;;;;16.73;12.58;;;;;;;8.48;67.48;92640.23;1674265;84;21097;-60
2021/12/03 02:41:08;;;;;;;14.28;11.60;;;;;;;8.44;67.97;92643.79;1676325;84;20961;-59
2021/12/03 02:43:35;;;;;;;11.08;8.45;;;;;;;8.41;69.02;92648.88;1672284;85;21070;-59
2021/12/03 02:46:01;;;;;;;16.25;11.63;;;;;;;8.36;69.67;92657.80;1671609;85;22332;-61
2021/12/03 02:48:28;;;;;;;17.23;13.48;;;;;;;8.30;70.29;92663.84;1674527;85;20974;-60
2021/12/03 02:50:55;;;;;;;13.95;11.30;;;;;;;8.26;71.17;92666.66;1651344;85;21018;-59
2021/12/03 02:53:22;;;;;;;7.95;6.83;;;;;;;8.22;71.72;92664.75;1671675;84;21080;-60
2021/12/03 02:55:49;;;;;;;7.50;5.28;;;;;;;8.13;72.19;92664.25;1672838;84;20962;-61
2021/12/03 02:58:19;;;;;;;5.22;4.47;;;;;;;8.02;72.67;92680.55;1668463;85;20959;-61
2021/12/03 03:00:48;;;;;;;15.32;10.10;;;;;;;7.98;73.32;92691.56;1676552;85;21014;-59
2021/12/03 03:03:14;;;;;;;6.20;5.60;;;;;;;7.96;73.64;92693.42;1671068;85;21077;-59
2021/12/03 03:05:52;;;;;;;6.20;5.60;;;;;;;7.94;74.02;92694.53;1673380;85;21057;-60
2021/12/03 03:08:18;;;;;;;43.38;27.42;;;;;;;7.93;74.51;92702.60;1670904;85;20982;-60
2021/12/03 03:10:47;;;;;;;35.38;23.42;;;;;;;7.88;74.89;92706.00;1650238;85;21062;-60
2021/12/03 03:13:13;;;;;;;37.33;24.52;;;;;;;7.87;75.36;92696.29;1669862;85;21481;-60
2021/12/03 03:15:40;;;;;;;25.85;16.75;;;;;;;7.89;75.91;92703.40;1672591;84;21097;-60
2021/12/03 03:18:18;;;;;;;15.45;10.80;;;;;;;7.95;76.07;92719.90;1676500;85;20978;-60
2021/12/03 03:20:45;;;;;;;12.07;8.30;;;;;;;7.91;76.46;92732.41;1672532;85;21074;-61
2021/12/03 03:23:13;;;;;;;10.32;7.55;;;;;;;7.86;76.70;92735.84;1670961;85;21812;-60
2021/12/03 03:25:41;;;;;;;21.93;14.00;;;;;;;7.83;77.09;92736.80;1674262;85;21018;-62
2021/12/03 03:28:09;;;;;;;20.23;14.85;;;;;;;7.84;77.16;92743.02;1672176;84;20990;-60
2021/12/03 03:30:37;;;;;;;25.50;15.65;;;;;;;7.78;77.53;92748.44;1677884;84;20990;-60
2021/12/03 03:33:04;;;;;;;17.05;13.10;;;;;;;7.78;78.03;92745.70;1679965;85;21009;-60
2021/12/03 03:35:31;;;;;;;19.57;13.25;;;;;;;7.79;78.24;92741.73;1679012;85;21137;-60
2021/12/03 03:37:58;;;;;;;12.10;8.93;;;;;;;7.81;78.71;92742.61;1675335;85;21414;-61
2021/12/03 03:40:25;;;;;;;12.20;9.38;;;;;;;7.86;78.83;92752.89;1650891;86;20993;-60
2021/12/03 03:42:51;;;;;;;69.17;39.00;;;;;;;7.90;78.80;92748.70;1670731;84;21088;-58
2021/12/03 03:45:20;;;;;;;50.25;24.55;;;;;;;7.95;78.89;92750.02;1652522;85;20961;-60
2021/12/03 03:47:47;;;;;;;44.40;21.80;;;;;;;7.99;78.73;92749.95;1673620;85;21814;-60
2021/12/03 03:50:15;;;;;;;36.55;20.62;;;;;;;8.00;78.57;92750.09;1657486;84;21332;-60
2021/12/03 03:52:42;;;;;;;25.20;17.55;;;;;;;8.01;78.60;92754.33;1678742;85;21447;-61
2021/12/03 03:55:11;;;;;;;32.03;19.30;;;;;;;8.02;78.86;92744.89;1678440;84;20965;-60
2021/12/03 03:57:38;;;;;;;36.77;23.12;;;;;;;8.07;79.03;92748.30;1677820;85;21006;-60
2021/12/03 04:00:09;;;;;;;43.92;26.93;;;;;;;8.05;78.78;92762.35;1680870;85;21143;-61
2021/12/03 04:02:38;;;;;;;49.20;30.40;;;;;;;7.99;78.94;92752.69;1679204;85;21018;-59
2021/12/03 04:05:06;;;;;;;49.85;30.02;;;;;;;7.98;79.12;92765.48;1683989;85;20989;-60
2021/12/03 04:07:32;;;;;;;43.78;26.20;;;;;;;7.97;79.18;92768.84;1676934;84;21090;-60
2021/12/03 04:09:59;;;;;;;37.93;22.32;;;;;;;7.95;79.24;92776.78;1672831;85;20973;-60
2021/12/03 04:12:25;;;;;;;43.85;25.27;;;;;;;7.98;79.77;92784.04;1677458;85;21135;-61
2021/12/03 04:14:52;;;;;;;39.05;23.67;;;;;;;8.05;79.63;92782.25;1674856;84;21525;-60
2021/12/03 04:17:19;;;;;;;38.55;23.60;;;;;;;8.02;79.53;92772.27;1672879;85;21028;-60
2021/12/03 04:19:45;;;;;;;35.65;21.45;;;;;;;8.00;79.56;92778.06;1673316;85;21057;-60
2021/12/03 04:22:17;;;;;;;34.18;21.55;;;;;;;7.96;79.66;92786.50;1651616;85;21112;-60
2021/12/03 04:24:43;;;;;;;33.75;20.48;;;;;;;7.94;79.80;92786.23;1656362;85;21149;-60
2021/12/03 04:27:09;;;;;;;40.08;25.68;;;;;;;7.99;80.21;92792.39;1658236;85;21465;-61
2021/12/03 04:29:36;;;;;;;31.62;22.13;;;;;;;8.09;80.55;92782.06;1677713;85;21026;-60
2021/12/03 04:32:05;;;;;;;29.75;21.12;;;;;;;8.20;80.20;92785.72;1673282;84;21250;-61
2021/12/03 04:34:32;;;;;;;32.15;19.20;;;;;;;8.26;79.65;92800.23;1671641;84;21597;-60
2021/12/03 04:36:58;;;;;;;22.77;16.65;;;;;;;8.17;79.31;92798.98;1676169;85;21734;-61
2021/12/03 04:39:25;;;;;;;30.27;18.70;;;;;;;8.09;79.70;92795.75;1673215;85;21202;-61
2021/12/03 04:41:51;;;;;;;33.05;18.87;;;;;;;8.07;79.84;92803.06;1683818;85;21085;-61
2021/12/03 04:44:18;;;;;;;34.78;19.98;;;;;;;8.04;79.78;92812.23;1650646;86;21085;-60
2021/12/03 04:46:45;;;;;;;35.33;24.35;;;;;;;8.03;80.37;92812.09;1652298;85;21654;-61
2021/12/03 04:49:11;;;;;;;31.80;23.27;;;;;;;8.07;80.22;92811.28;1675352;85;21119;-60
2021/12/03 04:51:38;;;;;;;39.70;24.85;;;;;;;8.08;80.49;92800.46;1670945;85;21068;-60
2021/12/03 04:54:04;;;;;;;35.30;22.50;;;;;;;8.11;80.07;92810.45;1656453;85;21025;-60
2021/12/03 04:56:33;;;;;;;30.27;19.98;;;;;;;8.06;80.36;92814.51;1680005;85;21021;-59
2021/12/03 04:58:59;;;;;;;15.08;10.40;;;;;;;8.05;80.01;92803.42;1679173;85;21092;-59
2021/12/03 05:01:26;;;;;;;10.30;7.85;;;;;;;8.05;79.89;92816.48;1679684;84;21791;-61
2021/12/03 05:03:54;;;;;;;7.20;5.15;;;;;;;8.08;78.90;92819.63;1678445;85;21022;-60
2021/12/03 05:06:31;;;;;;;5.70;5.00;;;;;;;7.97;77.88;92818.12;1659435;85;21095;-59
2021/12/03 05:08:57;;;;;;;10.95;9.58;;;;;;;7.79;77.49;92821.70;1675288;85;20978;-59
2021/12/03 05:11:24;;;;;;;19.87;13.18;;;;;;;7.67;77.60;92837.83;1677969;84;21116;-60
2021/12/03 05:13:51;;;;;;;10.53;9.43;;;;;;;7.51;77.50;92839.69;1679998;85;21148;-61
2021/12/03 05:16:18;;;;;;;10.70;8.13;;;;;;;7.44;77.50;92840.05;1678386;84;21540;-61
2021/12/03 05:18:48;;;;;;;10.70;7.95;;;;;;;7.40;77.47;92860.02;1678530;84;21066;-59
2021/12/03 05:21:14;;;;;;;6.22;5.10;;;;;;;7.37;77.02;92871.91;1679685;84;21009;-59
2021/12/03 05:23:41;;;;;;;6.20;5.40;;;;;;;7.35;76.35;92859.31;1678239;85;21013;-60
2021/12/03 05:26:08;;;;;;;17.10;11.80;;;;;;;7.28;75.83;92855.57;1680672;85;21136;-61
2021/12/03 05:28:35;;;;;;;17.73;10.58;;;;;;;7.18;75.66;92865.11;1672170;85;21069;-62
2021/12/03 05:31:01;;;;;;;12.18;8.48;;;;;;;7.08;75.43;92887.53;1680574;85;20986;-61
2021/12/03 05:33:28;;;;;;;9.25;7.60;;;;;;;7.04;75.62;92884.23;1657299;85;21437;-61
2021/12/03 05:35:55;;;;;;;8.88;7.10;;;;;;;6.99;75.38;92898.53;1694735;83;21121;-60
2021/12/03 05:38:22;;;;;;;4.92;4.35;;;;;;;6.85;74.86;92912.95;1695787;83;22403;-60
2021/12/03 05:40:48;;;;;;;4.35;3.95;;;;;;;6.67;74.45;92930.84;1680996;84;21586;-59
2021/12/03 05:43:16;;;;;;;4.45;4.08;;;;;;;6.45;73.93;92934.45;1701515;83;21538;-59
2021/12/03 05:45:42;;;;;;;5.37;4.92;;;;;;;6.29;74.07;92932.11;1697050;83;21034;-60
2021/12/03 05:48:09;;;;;;;4.70;4.30;;;;;;;6.16;73.90;92945.23;1697778;83;21109;-59
2021/12/03 05:50:35;;;;;;;4.10;3.75;;;;;;;5.98;72.99;92961.69;1691609;84;21196;-59
2021/12/03 05:53:04;;;;;;;3.80;3.50;;;;;;;5.74;72.08;92953.40;1696556;84;21123;-60
2021/12/03 05:55:32;;;;;;;3.33;3.08;;;;;;;5.42;72.20;92958.80;1704891;83;21093;-58
2021/12/03 05:57:58;;;;;;;3.42;3.12;;;;;;;5.11;72.31;92976.55;1675938;84;21062;-59
2021/12/03 06:00:29;;;;;;;3.40;3.20;;;;;;;4.77;72.76;92980.30;1702892;83;21008;-58
2021/12/03 06:02:57;;;;;;;3.40;3.20;;;;;;;4.50;73.83;92972.11;1670460;84;21138;-58
2021/12/03 06:05:28;;;;;;;3.22;3.02;;;;;;;4.29;74.30;92989.31;1670550;84;21010;-59
2021/12/03 06:07:56;;;;;;;3.30;3.10;;;;;;;4.12;74.83;92996.20;1714011;83;21063;-61
2021/12/03 06:10:23;;;;;;;3.65;3.37;;;;;;;3.97;75.29;93002.63;1703192;83;21518;-59
2021/12/03 06:12:50;;;;;;;3.50;3.20;;;;;;;3.77;75.48;93015.83;1683530;83;21066;-59
2021/12/03 06:15:17;;;;;;;3.90;3.60;;;;;;;3.59;76.10;93019.22;1688114;83;21142;-57
2021/12/03 06:17:46;;;;;;;3.70;3.40;;;;;;;3.48;76.58;93028.20;1689364;83;20998;-59
2021/12/03 06:20:13;;;;;;;4.33;3.95;;;;;;;3.33;76.84;93032.63;1705783;83;21023;-61
2021/12/03 06:22:40;;;;;;;5.10;4.30;;;;;;;3.21;77.62;93036.17;1681776;83;21073;-58
2021/12/03 06:25:09;;;;;;;5.00;4.60;;;;;;;3.11;78.12;93054.95;1691547;83;20978;-61
2021/12/03 06:27:37;;;;;;;5.95;4.95;;;;;;;3.04;78.47;93055.95;1696995;83;21152;-58
2021/12/03 06:30:07;;;;;;;6.15;4.80;;;;;;;3.04;78.57;93057.92;1692038;83;21046;-61
2021/12/03 06:32:35;;;;;;;6.55;4.75;;;;;;;3.02;79.06;93086.86;1676114;83;21051;-61
2021/12/03 06:35:03;;;;;;;7.35;5.62;;;;;;;2.99;78.88;93091.05;1685157;83;21054;-59
2021/12/03 06:37:30;;;;;;;10.00;6.72;;;;;;;2.99;79.42;93108.70;1701456;83;22392;-58
2021/12/03 06:39:57;;;;;;;5.80;5.20;;;;;;;3.01;79.81;93107.66;1689334;83;21162;-61
2021/12/03 06:42:24;;;;;;;14.55;6.58;;;;;;;3.04;80.04;93121.74;1673009;83;21039;-61
2021/12/03 06:44:51;;;;;;;10.08;6.83;;;;;;;3.03;79.81;93124.30;1690969;83;20974;-63
2021/12/03 06:47:17;;;;;;;6.53;5.22;;;;;;;3.02;80.29;93129.58;1695955;83;21208;-62
2021/12/03 06:49:44;;;;;;;8.78;6.75;;;;;;;3.02;79.87;93140.44;1696801;83;21058;-59
2021/12/03 06:52:15;;;;;;;7.12;6.33;;;;;;;2.98;79.88;93143.84;1707488;82;21147;-59
2021/12/03 06:54:41;;;;;;;16.85;12.03;;;;;;;3.01;80.10;93152.47;1691472;82;21066;-58
2021/12/03 06:57:08;;;;;;;6.95;5.53;;;;;;;3.03;80.29;93165.04;1678073;83;21071;-58
2021/12/03 06:59:36;;;;;;;9.73;7.45;;;;;;;3.06;79.80;93172.31;1706317;81;21055;-59
2021/12/03 07:02:04;;;;;;;8.15;7.08;;;;;;;3.00;79.71;93187.03;1711639;82;21929;-58
2021/12/03 07:04:36;;;;;;;5.95;5.35;;;;;;;2.95;79.85;93187.59;1714519;81;21148;-62
2021/12/03 07:07:03;;;;;;;6.87;6.17;;;;;;;2.95;79.53;93204.47;1704356;82;21097;-59
2021/12/03 07:09:30;;;;;;;11.55;9.38;;;;;;;2.92;79.72;93212.13;1704758;82;21053;-62
2021/12/03 07:11:57;;;;;;;16.02;10.95;;;;;;;2.89;79.97;93215.72;1677827;82;21035;-62
2021/12/03 07:14:24;;;;;;;16.40;11.85;;;;;;;2.89;80.39;93221.16;1686207;82;21085;-59
2021/12/03 07:16:51;;;;;;;13.40;9.70;;;;;;;2.92;80.09;93228.42;1692222;81;21236;-60
2021/12/03 07:19:19;;;;;;;11.15;9.60;;;;;;;2.92;80.11;93228.42;1699671;82;22112;-64
2021/12/03 07:21:48;;;;;;;14.87;11.03;;;;;;;2.91;80.54;93234.44;1678197;83;21035;-63
2021/12/03 07:24:15;;;;;;;11.75;9.38;;;;;;;2.98;80.84;93246.46;1659488;84;21091;-58
2021/12/03 07:26:42;;;;;;;10.98;8.90;;;;;;;3.12;81.04;93253.41;1653961;84;21038;-61
2021/12/03 07:29:09;;;;;;;11.00;8.93;;;;;;;3.17;80.36;93259.64;1712176;81;21951;-55
2021/12/03 07:31:36;;;;;;;18.40;15.28;;;;;;;3.12;80.23;93258.83;1705033;81;21040;-63
2021/12/03 07:34:04;;;;;;;16.30;12.18;;;;;;;3.12;80.53;93265.05;1670483;81;21584;-58
2021/12/03 07:36:37;;;;;;;38.55;23.67;;;;;;;3.15;80.34;93274.26;1697661;82;21095;-57
2021/12/03 07:39:04;;;;;;;22.82;15.93;;;;;;;3.18;80.55;93278.23;1616119;84;21121;-60
2021/12/03 07:41:31;;;;;;;12.73;9.68;;;;;;;3.19;80.36;93282.47;1614587;85;21265;-60
2021/12/03 07:43:58;;;;;;;17.00;13.03;;;;;;;3.25;80.47;93282.69;1691908;82;21549;-55
2021/12/03 07:46:25;;;;;;;19.02;13.38;;;;;;;3.31;80.23;93280.34;1689764;82;21086;-61
2021/12/03 07:48:52;;;;;;;20.57;16.40;;;;;;;3.33;79.75;93282.03;1672655;82;21113;-59
2021/12/03 07:51:19;;;;;;;13.98;12.15;;;;;;;3.34;80.08;93285.48;1680239;81;21592;-61
2021/12/03 07:53:45;;;;;;;13.08;8.98;;;;;;;3.42;79.79;93294.95;1685808;82;21103;-63
2021/12/03 07:56:12;;;;;;;8.98;8.08;;;;;;;3.47;78.81;93300.61;1685004;82;21034;-65
2021/12/03 07:58:39;;;;;;;9.65;8.75;;;;;;;3.48;78.62;93306.20;1695510;82;21020;-58
2021/12/03 08:01:06;;;;;;;15.03;11.53;;;;;;;3.48;78.62;93311.03;1693803;82;21009;-59
2021/12/03 08:03:33;;;;;;;16.17;11.65;;;;;;;3.53;79.08;93311.08;1699417;81;21578;-61
2021/12/03 08:06:09;;;;;;;11.65;9.90;;;;;;;3.51;78.55;93325.10;1672984;81;21002;-61
2021/12/03 08:08:37;;;;;;;8.60;7.07;;;;;;;3.43;78.49;93319.58;1695173;81;21017;-63
2021/12/03 08:11:03;;;;;;;7.10;5.25;;;;;;;3.37;78.14;93325.38;1648590;83;21030;-63
2021/12/03 08:13:33;;;;;;;6.35;5.45;;;;;;;3.30;77.69;93335.12;1690970;81;20986;-59
2021/12/03 08:16:00;;;;;;;4.58;4.17;;;;;;;3.27;77.29;93337.35;1684491;82;21170;-64
2021/12/03 08:18:28;;;;;;;5.22;4.72;;;;;;;3.28;76.85;93341.59;1652541;83;21949;-62
2021/12/03 08:20:58;;;;;;;6.78;4.70;;;;;;;3.21;76.44;93349.97;1668812;82;21155;-63
2021/12/03 08:23:28;;;;;;;7.72;6.78;;;;;;;3.10;76.63;93345.44;1676298;82;21046;-61
2021/12/03 08:25:55;;;;;;;5.22;4.72;;;;;;;3.03;77.20;93355.91;1711592;82;21121;-61
2021/12/03 08:28:22;;;;;;;5.60;5.03;;;;;;;3.07;77.26;93366.68;1668521;83;21100;-61
2021/12/03 08:30:51;;;;;;;5.00;4.50;;;;;;;3.18;77.47;93364.39;1676813;82;21831;-64
2021/12/03 08:33:21;;;;;;;9.38;7.00;;;;;;;3.31;77.77;93374.68;1697705;82;20975;-66
2021/12/03 08:35:48;;;;;;;9.15;8.13;;;;;;;3.47;77.90;93371.86;1699830;82;21053;-66
2021/12/03 08:38:15;;;;;;;10.03;8.23;;;;;;;3.57;77.42;93374.25;1699774;82;21022;-62
2021/12/03 08:40:43;;;;;;;6.25;5.65;;;;;;;3.64;77.10;93374.02;1697406;82;21139;-64
2021/12/03 08:43:11;;;;;;;5.72;5.12;;;;;;;3.65;76.43;93379.03;1693138;82;21175;-62
2021/12/03 08:45:40;;;;;;;7.78;6.10;;;;;;;3.62;75.85;93374.47;1671709;83;21057;-66
2021/12/03 08:48:10;;;;;;;12.50;8.88;;;;;;;3.66;75.57;93383.89;1688763;81;21074;-65
2021/12/03 08:50:50;;;;;;;15.50;11.10;;;;;;;3.63;75.50;93384.15;1689068;81;21013;-63
2021/12/03 08:55:54;;;;;;;17.67;13.43;;;;;;;3.60;75.70;93399.20;1667606;82;21794;-68
2021/12/03 08:58:21;;;;;;;12.65;9.13;;;;;;;3.60;76.17;93405.42;1691114;81;21031;-62
2021/12/03 09:00:52;;;;;;;9.03;7.87;;;;;;;3.58;75.75;93396.94;1688883;81;21050;-60
2021/12/03 09:03:21;;;;;;;10.23;8.33;;;;;;;3.51;75.76;93405.91;1693038;82;21505;-63
2021/12/03 09:05:48;;;;;;;35.52;25.95;;;;;;;3.43;76.18;93397.04;1690640;82;21084;-63
2021/12/03 09:08:16;;;;;;;34.33;26.15;;;;;;;3.45;76.55;93406.88;1690863;82;21461;-62
2021/12/03 09:10:43;;;;;;;27.35;21.80;;;;;;;3.39;76.74;93416.77;1693422;82;20923;-61
2021/12/03 09:13:10;;;;;;;37.80;26.82;;;;;;;3.38;77.09;93420.69;1685979;82;21037;-63
2021/12/03 09:15:40;;;;;;;14.15;11.68;;;;;;;3.44;77.29;93414.87;1696155;81;21050;-64
2021/12/03 09:18:19;;;;;;;4.45;4.05;;;;;;;3.50;76.68;93410.56;1677723;81;21009;-63
2021/12/03 09:26:10;;;;;;;3.85;3.65;;;;;;;3.04;73.47;93420.52;1693374;82;21028;-63
2021/12/03 09:28:37;;;;;;;5.05;4.17;;;;;;;2.87;73.33;93413.63;1691864;82;21042;-64
2021/12/03 09:31:05;;;;;;;7.90;5.90;;;;;;;2.79;73.35;93425.86;1693599;82;21130;-66
2021/12/03 09:33:36;;;;;;;4.72;4.33;;;;;;;2.70;73.08;93421.66;1685520;81;21128;-63
2021/12/03 09:36:03;;;;;;;5.58;5.08;;;;;;;2.64;73.29;93436.92;1676012;81;20906;-62
2021/12/03 09:38:36;;;;;;;5.50;5.00;;;;;;;2.60;73.24;93437.62;1692307;82;21076;-63
2021/12/03 09:41:08;;;;;;;6.05;5.35;;;;;;;2.56;73.63;93433.66;1655357;82;21177;-63
2021/12/03 09:43:39;;;;;;;6.62;5.87;;;;;;;2.65;73.87;93437.12;1692895;82;21001;-64
2021/12/03 09:46:18;;;;;;;9.28;7.87;;;;;;;2.80;73.48;93446.38;1696934;82;21129;-60
2021/12/03 09:49:12;;;;;;;6.45;5.85;;;;;;;2.86;73.51;93450.86;1689583;81;21017;-62
2021/12/03 09:51:25;;;;;;;6.62;6.03;;;;;;;2.88;72.90;93451.80;1694078;82;21098;-63
2021/12/03 09:54:18;;;;;;;14.63;10.08;;;;;;;2.88;73.34;93457.23;1690232;82;21026;-62
2021/12/03 09:56:35;;;;;;;28.98;14.68;;;;;;;2.92;73.43;93456.53;1691290;81;21466;-60
2021/12/03 10:01:39;;;;;;;47.83;25.32;;;;;;;2.90;73.72;93450.16;1668779;82;20944;-63
2021/12/03 10:04:26;;;;;;;40.67;22.75;;;;;;;2.89;73.94;93458.15;1689627;82;21030;-61
2021/12/03 10:18:17;;;;;;;13.38;9.00;;;;;;;2.92;74.28;93468.17;1683687;81;21724;-61
2021/12/03 10:20:51;;;;;;;22.55;17.70;;;;;;;2.99;74.58;93476.13;1683325;82;21011;-61
2021/12/03 10:34:39;;;;;;;22.33;15.43;;;;;;;3.46;74.01;93469.55;1684640;82;21006;-63
2021/12/03 10:36:56;;;;;;;22.95;15.53;;;;;;;3.55;73.59;93475.26;1689042;81;21549;-63
2021/12/03 10:39:46;;;;;;;11.95;10.00;;;;;;;3.55;73.64;93477.98;1670217;82;21124;-63
2021/12/03 10:42:39;;;;;;;20.90;12.88;;;;;;;3.58;73.71;93488.02;1693723;82;21060;-63
2021/12/03 10:45:33;;;;;;;22.15;14.63;;;;;;;3.70;73.61;93495.41;1671227;82;21038;-62
2021/12/03 10:48:04;;;;;;;12.15;9.65;;;;;;;3.83;73.33;93488.03;1694597;81;20998;-63
2021/12/03 10:53:07;;;;;;;18.12;11.00;;;;;;;3.79;72.43;93496.89;1693354;82;21444;-62
2021/12/03 11:04:29;;;;;;;36.08;21.25;;;;;;;3.46;73.13;93500.81;1584351;87;21111;-60
2021/12/03 11:36:44;;;;;;;23.02;13.72;;;;;;;3.03;74.73;93553.45;1688243;82;21517;-62
2021/12/03 11:42:16;;;;;;;22.62;15.35;;;;;;;2.96;75.12;93554.97;1700862;82;22221;-62
2021/12/03 12:19:32;;;;;;;17.32;10.88;;;;;;;2.97;74.60;93580.36;1697004;82;21570;-62
2021/12/03 12:44:00;;;;;;;26.05;17.73;;;;;;;2.74;75.70;93608.30;1704323;83;21140;-63
2021/12/03 13:10:59;;;;;;;53.85;30.10;;;;;;;3.23;73.70;93617.31;1691956;83;22421;-59
2021/12/03 13:38:50;;;;;;;51.25;29.40;;;;;;;3.48;73.31;93657.44;1603356;85;21245;-61
2021/12/03 14:08:47;;;;;;;63.23;39.65;;;;;;;3.42;73.06;93723.03;1697659;82;20961;-64
2021/12/03 14:47:10;;;;;;;;;;;;;;;2.84;75.40;93747.13;1698061;83;21220;-63
2021/12/03 14:52:07;;;;;;;80.80;44.00;;;;;;;2.79;75.44;93761.19;1677193;83;21022;-60
2021/12/03 14:57:42;;;;;;;78.47;45.45;;;;;;;2.89;75.61;93760.20;1689053;82;21031;-58
2021/12/03 15:00:25;;;;;;;82.25;53.85;;;;;;;3.01;76.09;93763.02;1687886;82;21141;-59
2021/12/03 15:03:50;;;;;;;106.52;61.13;;;;;;;3.16;75.44;93767.52;1708240;82;21563;-60
2021/12/03 15:05:49;;;;;;;69.37;46.23;;;;;;;3.16;74.93;93777.03;1664285;84;21052;-63
2021/12/03 15:08:10;;;;;;;53.25;35.52;;;;;;;3.09;74.71;93782.63;1681418;84;21516;-63
2021/12/03 15:11:10;;;;;;;43.28;27.98;;;;;;;3.01;74.90;93803.77;1685015;83;20984;-61
2021/12/03 15:34:28;;;;;;;73.45;42.95;;;;;;;2.96;75.27;93823.86;1735197;82;21530;-60
2021/12/03 16:03:27;;;;;;;40.38;25.25;;;;;;;2.46;74.07;93858.05;1697039;82;21114;-62
2021/12/03 16:03:58;;;;;;;55.83;34.43;;;;;;;2.44;74.37;93858.28;1726481;82;20951;-61
2021/12/03 16:06:41;;;;;;;50.90;29.40;;;;;;;2.45;74.62;93879.59;1699638;82;21180;-62
2021/12/03 16:09:11;;;;;;;53.68;30.82;;;;;;;2.47;74.34;93875.86;1713811;82;20994;-61
2021/12/03 16:11:43;;;;;;;49.80;29.42;;;;;;;2.48;74.24;93886.89;1724992;82;21014;-62
2021/12/03 16:14:40;;;;;;;41.88;26.23;;;;;;;2.46;73.89;93889.26;1722296;82;21196;-64
2021/12/03 16:43:56;;;;;;;29.42;20.82;;;;;;;2.28;73.19;93919.23;1679956;84;21080;-59
2021/12/03 16:46:26;;;;;;;42.25;24.30;;;;;;;2.33;72.76;93912.75;1692515;83;21197;-59
2021/12/03 16:54:12;;;;;;;38.15;25.12;;;;;;;2.47;71.93;93941.61;1695727;83;20987;-61
2021/12/03 16:56:48;;;;;;;48.73;31.45;;;;;;;2.43;71.71;93941.66;1677428;85;20983;-59
2021/12/03 16:59:14;;;;;;;54.50;32.15;;;;;;;2.38;71.80;93945.44;1723481;82;21151;-61
2021/12/03 17:01:49;;;;;;;77.58;41.88;;;;;;;2.30;71.67;93944.04;1715955;82;21002;-62
2021/12/03 17:07:08;;;;;;;92.80;50.60;;;;;;;2.22;71.94;93959.66;1731891;82;20967;-60
2021/12/03 17:25:47;;;;;;;;;;;;;;;;;;;;;
2021/12/03 17:47:17;;;;;;;115.55;67.37;;;;;;;1.92;72.38;94004.50;1723331;82;21073;-59
2021/12/03 17:54:44;;;;;;;113.57;67.97;;;;;;;1.82;71.42;94015.50;1720740;82;20171;-60